sensor_id;sensor_type;location;lat;lon;timestamp;pressure;altitude;pressure_sealevel;temperature;humidity
48530;BME280;34927;37.302;-121.982;2023-04-04T00:00:37;101229.0;;;22.88;27.67
48530;BME280;34927;37.302;-121.982;2023-04-04T00:01:47;101227.0;;;22.88;27.70
48530;BME280;34927;37.302;-121.982;2023-04-04T00:02:52;101225.0;;;22.86;27.76
48530;BME280;34927;37.302;-121.982;2023-04-04T00:03:57;101222.0;;;22.86;27.86
48530;BME280;34927;37.302;-121.982;2023-04-04T00:05:01;101218.0;;;22.83;27.72
48530;BME280;34927;37.302;-121.982;2023-04-04T00:06:07;101222.0;;;22.82;27.89
48530;BME280;34927;37.302;-121.982;2023-04-04T00:07:11;101222.0;;;22.79;27.90
48530;BME280;34927;37.302;-121.982;2023-04-04T00:08:16;101222.0;;;22.79;27.92
48530;BME280;34927;37.302;-121.982;2023-04-04T00:09:22;101215.0;;;22.82;27.78
48530;BME280;34927;37.302;-121.982;2023-04-04T00:10:27;101215.0;;;22.98;27.60
48530;BME280;34927;37.302;-121.982;2023-04-04T00:11:32;101217.0;;;23.02;27.58
48530;BME280;34927;37.302;-121.982;2023-04-04T00:12:37;101218.0;;;22.94;27.67
48530;BME280;34927;37.302;-121.982;2023-04-04T00:13:41;101224.0;;;23.03;27.47
48530;BME280;34927;37.302;-121.982;2023-04-04T00:14:47;101227.0;;;22.98;27.56
48530;BME280;34927;37.302;-121.982;2023-04-04T00:15:51;101222.0;;;23.04;27.53
48530;BME280;34927;37.302;-121.982;2023-04-04T00:16:56;101217.0;;;23.00;27.56
48530;BME280;34927;37.302;-121.982;2023-04-04T00:18:02;101217.0;;;22.99;27.40
48530;BME280;34927;37.302;-121.982;2023-04-04T00:19:07;101218.0;;;23.14;27.28
48530;BME280;34927;37.302;-121.982;2023-04-04T00:20:12;101223.0;;;23.23;27.18
48530;BME280;34927;37.302;-121.982;2023-04-04T00:21:17;101218.0;;;23.25;27.16
48530;BME280;34927;37.302;-121.982;2023-04-04T00:22:21;101217.0;;;23.28;26.99
48530;BME280;34927;37.302;-121.982;2023-04-04T00:23:26;101219.0;;;23.31;27.00
48530;BME280;34927;37.302;-121.982;2023-04-04T00:24:31;101220.0;;;23.33;26.98
48530;BME280;34927;37.302;-121.982;2023-04-04T00:25:37;101218.0;;;23.45;26.77
48530;BME280;34927;37.302;-121.982;2023-04-04T00:26:41;101218.0;;;23.46;26.68
48530;BME280;34927;37.302;-121.982;2023-04-04T00:27:47;101219.0;;;23.44;26.57
48530;BME280;34927;37.302;-121.982;2023-04-04T00:28:52;101222.0;;;23.49;26.54
48530;BME280;34927;37.302;-121.982;2023-04-04T00:29:56;101221.0;;;23.57;26.43
48530;BME280;34927;37.302;-121.982;2023-04-04T00:31:01;101220.0;;;23.57;26.59
48530;BME280;34927;37.302;-121.982;2023-04-04T00:32:07;101220.0;;;23.54;26.53
48530;BME280;34927;37.302;-121.982;2023-04-04T00:33:12;101223.0;;;23.47;26.46
48530;BME280;34927;37.302;-121.982;2023-04-04T00:34:16;101227.0;;;23.54;26.52
48530;BME280;34927;37.302;-121.982;2023-04-04T00:35:22;101219.0;;;23.43;26.56
48530;BME280;34927;37.302;-121.982;2023-04-04T00:36:27;101226.0;;;23.46;26.60
48530;BME280;34927;37.302;-121.982;2023-04-04T00:37:32;101223.0;;;23.29;26.75
48530;BME280;34927;37.302;-121.982;2023-04-04T00:38:36;101215.0;;;23.28;26.88
48530;BME280;34927;37.302;-121.982;2023-04-04T00:39:42;101217.0;;;23.24;26.93
48530;BME280;34927;37.302;-121.982;2023-04-04T00:40:48;101215.0;;;23.11;26.78
48530;BME280;34927;37.302;-121.982;2023-04-04T00:41:56;101217.0;;;23.01;26.79
48530;BME280;34927;37.302;-121.982;2023-04-04T00:43:02;101219.0;;;23.30;26.21
48530;BME280;34927;37.302;-121.982;2023-04-04T00:44:07;101219.0;;;23.43;25.67
48530;BME280;34927;37.302;-121.982;2023-04-04T00:45:11;101219.0;;;23.41;25.38
48530;BME280;34927;37.302;-121.982;2023-04-04T00:46:17;101227.0;;;23.25;25.46
48530;BME280;34927;37.302;-121.982;2023-04-04T00:47:22;101223.0;;;23.20;25.45
48530;BME280;34927;37.302;-121.982;2023-04-04T00:48:27;101226.0;;;22.96;25.69
48530;BME280;34927;37.302;-121.982;2023-04-04T00:49:31;101231.0;;;22.74;25.98
48530;BME280;34927;37.302;-121.982;2023-04-04T00:50:37;101228.0;;;22.68;26.13
48530;BME280;34927;37.302;-121.982;2023-04-04T00:51:42;101237.0;;;22.53;26.24
48530;BME280;34927;37.302;-121.982;2023-04-04T00:52:46;101232.0;;;22.39;26.50
48530;BME280;34927;37.302;-121.982;2023-04-04T00:53:51;101237.0;;;22.25;26.64
48530;BME280;34927;37.302;-121.982;2023-04-04T00:54:56;101238.0;;;22.31;26.61
48530;BME280;34927;37.302;-121.982;2023-04-04T00:56:01;101241.0;;;22.19;26.77
48530;BME280;34927;37.302;-121.982;2023-04-04T00:57:08;101236.0;;;22.15;26.84
48530;BME280;34927;37.302;-121.982;2023-04-04T00:58:12;101239.0;;;22.01;26.96
48530;BME280;34927;37.302;-121.982;2023-04-04T00:59:17;101236.0;;;21.90;26.89
48530;BME280;34927;37.302;-121.982;2023-04-04T01:00:22;101239.0;;;22.02;26.89
48530;BME280;34927;37.302;-121.982;2023-04-04T01:01:26;101240.0;;;22.26;26.63
48530;BME280;34927;37.302;-121.982;2023-04-04T01:02:32;101235.0;;;22.59;26.26
48530;BME280;34927;37.302;-121.982;2023-04-04T01:03:37;101239.0;;;22.92;25.94
48530;BME280;34927;37.302;-121.982;2023-04-04T01:04:42;101237.0;;;23.23;25.61
48530;BME280;34927;37.302;-121.982;2023-04-04T01:05:46;101243.0;;;23.52;25.27
48530;BME280;34927;37.302;-121.982;2023-04-04T01:06:51;101237.0;;;23.82;24.88
48530;BME280;34927;37.302;-121.982;2023-04-04T01:07:57;101243.0;;;24.03;24.67
48530;BME280;34927;37.302;-121.982;2023-04-04T01:09:02;101240.0;;;24.12;24.60
48530;BME280;34927;37.302;-121.982;2023-04-04T01:10:07;101244.0;;;24.06;24.75
48530;BME280;34927;37.302;-121.982;2023-04-04T01:11:11;101245.0;;;23.95;24.77
48530;BME280;34927;37.302;-121.982;2023-04-04T01:12:17;101247.0;;;23.74;25.08
48530;BME280;34927;37.302;-121.982;2023-04-04T01:13:22;101251.0;;;23.49;25.42
48530;BME280;34927;37.302;-121.982;2023-04-04T01:14:26;101248.0;;;23.26;25.75
48530;BME280;34927;37.302;-121.982;2023-04-04T01:15:32;101262.0;;;23.11;25.92
48530;BME280;34927;37.302;-121.982;2023-04-04T01:16:36;101253.0;;;22.94;26.17
48530;BME280;34927;37.302;-121.982;2023-04-04T01:17:42;101253.0;;;22.87;26.23
48530;BME280;34927;37.302;-121.982;2023-04-04T01:18:47;101258.0;;;22.78;26.34
48530;BME280;34927;37.302;-121.982;2023-04-04T01:19:59;101258.0;;;22.60;26.38
48530;BME280;34927;37.302;-121.982;2023-04-04T01:21:08;101268.0;;;22.72;26.36
48530;BME280;34927;37.302;-121.982;2023-04-04T01:22:12;101273.0;;;22.98;26.10
48530;BME280;34927;37.302;-121.982;2023-04-04T01:23:17;101281.0;;;23.28;25.78
48530;BME280;34927;37.302;-121.982;2023-04-04T01:24:22;101268.0;;;23.56;25.36
48530;BME280;34927;37.302;-121.982;2023-04-04T01:25:29;101273.0;;;23.86;25.02
48530;BME280;34927;37.302;-121.982;2023-04-04T01:26:31;101269.0;;;24.09;24.79
48530;BME280;34927;37.302;-121.982;2023-04-04T01:27:37;101265.0;;;24.19;24.54
48530;BME280;34927;37.302;-121.982;2023-04-04T01:28:41;101271.0;;;24.09;24.70
48530;BME280;34927;37.302;-121.982;2023-04-04T01:29:46;101271.0;;;24.04;24.76
48530;BME280;34927;37.302;-121.982;2023-04-04T01:30:52;101273.0;;;23.95;24.91
48530;BME280;34927;37.302;-121.982;2023-04-04T01:32:03;101278.0;;;23.71;25.21
48530;BME280;34927;37.302;-121.982;2023-04-04T01:33:09;101278.0;;;23.30;25.70
48530;BME280;34927;37.302;-121.982;2023-04-04T01:34:22;101276.0;;;23.16;25.94
48530;BME280;34927;37.302;-121.982;2023-04-04T01:35:32;101275.0;;;23.04;26.13
48530;BME280;34927;37.302;-121.982;2023-04-04T01:36:42;101278.0;;;22.86;26.42
48530;BME280;34927;37.302;-121.982;2023-04-04T01:37:51;101273.0;;;22.97;26.39
48530;BME280;34927;37.302;-121.982;2023-04-04T01:39:01;101278.0;;;23.02;26.47
48530;BME280;34927;37.302;-121.982;2023-04-04T01:40:13;101274.0;;;22.98;26.26
48530;BME280;34927;37.302;-121.982;2023-04-04T01:41:22;101278.0;;;22.86;26.80
48530;BME280;34927;37.302;-121.982;2023-04-04T01:42:27;101275.0;;;23.07;26.62
48530;BME280;34927;37.302;-121.982;2023-04-04T01:43:31;101284.0;;;23.28;26.31
48530;BME280;34927;37.302;-121.982;2023-04-04T01:44:37;101274.0;;;23.56;26.02
48530;BME280;34927;37.302;-121.982;2023-04-04T01:45:42;101276.0;;;23.87;25.69
48530;BME280;34927;37.302;-121.982;2023-04-04T01:46:51;101273.0;;;24.11;25.50
48530;BME280;34927;37.302;-121.982;2023-04-04T01:47:56;101273.0;;;24.24;25.46
48530;BME280;34927;37.302;-121.982;2023-04-04T01:49:02;101272.0;;;24.19;25.45
48530;BME280;34927;37.302;-121.982;2023-04-04T01:50:08;101272.0;;;24.03;25.96
48530;BME280;34927;37.302;-121.982;2023-04-04T01:51:13;101278.0;;;23.73;26.50
48530;BME280;34927;37.302;-121.982;2023-04-04T01:52:17;101278.0;;;23.52;26.61
48530;BME280;34927;37.302;-121.982;2023-04-04T01:53:21;101276.0;;;23.33;26.82
48530;BME280;34927;37.302;-121.982;2023-04-04T01:54:27;101275.0;;;23.37;26.93
48530;BME280;34927;37.302;-121.982;2023-04-04T01:55:31;101279.0;;;23.22;27.06
48530;BME280;34927;37.302;-121.982;2023-04-04T01:56:36;101284.0;;;23.22;27.18
48530;BME280;34927;37.302;-121.982;2023-04-04T01:57:41;101286.0;;;23.36;26.77
48530;BME280;34927;37.302;-121.982;2023-04-04T01:58:47;101288.0;;;23.31;26.80
48530;BME280;34927;37.302;-121.982;2023-04-04T01:59:51;101286.0;;;23.27;26.86
48530;BME280;34927;37.302;-121.982;2023-04-04T02:00:56;101289.0;;;23.29;26.89
48530;BME280;34927;37.302;-121.982;2023-04-04T02:02:01;101287.0;;;23.06;27.05
48530;BME280;34927;37.302;-121.982;2023-04-04T02:03:06;101284.0;;;23.08;27.19
48530;BME280;34927;37.302;-121.982;2023-04-04T02:04:11;101289.0;;;23.23;26.97
48530;BME280;34927;37.302;-121.982;2023-04-04T02:05:16;101289.0;;;23.56;26.60
48530;BME280;34927;37.302;-121.982;2023-04-04T02:06:21;101284.0;;;23.85;26.25
48530;BME280;34927;37.302;-121.982;2023-04-04T02:07:26;101291.0;;;24.06;25.96
48530;BME280;34927;37.302;-121.982;2023-04-04T02:08:32;101281.0;;;24.09;25.95
48530;BME280;34927;37.302;-121.982;2023-04-04T02:09:37;101285.0;;;24.05;25.93
48530;BME280;34927;37.302;-121.982;2023-04-04T02:10:42;101290.0;;;23.92;26.17
48530;BME280;34927;37.302;-121.982;2023-04-04T02:11:47;101286.0;;;23.70;26.38
48530;BME280;34927;37.302;-121.982;2023-04-04T02:12:53;101282.0;;;23.59;26.49
48530;BME280;34927;37.302;-121.982;2023-04-04T02:13:56;101285.0;;;23.66;26.48
48530;BME280;34927;37.302;-121.982;2023-04-04T02:15:01;101284.0;;;23.09;27.12
48530;BME280;34927;37.302;-121.982;2023-04-04T02:16:06;101288.0;;;23.36;26.86
48530;BME280;34927;37.302;-121.982;2023-04-04T02:17:11;101284.0;;;23.32;27.03
48530;BME280;34927;37.302;-121.982;2023-04-04T02:18:17;101284.0;;;23.37;26.97
48530;BME280;34927;37.302;-121.982;2023-04-04T02:19:21;101278.0;;;23.35;26.99
48530;BME280;34927;37.302;-121.982;2023-04-04T02:20:26;101283.0;;;23.33;27.18
48530;BME280;34927;37.302;-121.982;2023-04-04T02:21:31;101284.0;;;23.25;27.25
48530;BME280;34927;37.302;-121.982;2023-04-04T02:22:36;101283.0;;;23.22;27.39
48530;BME280;34927;37.302;-121.982;2023-04-04T02:23:43;101284.0;;;23.14;27.48
48530;BME280;34927;37.302;-121.982;2023-04-04T02:24:47;101282.0;;;23.07;27.61
48530;BME280;34927;37.302;-121.982;2023-04-04T02:26:04;101283.0;;;22.96;27.85
48530;BME280;34927;37.302;-121.982;2023-04-04T02:27:08;101283.0;;;23.12;27.59
48530;BME280;34927;37.302;-121.982;2023-04-04T02:28:12;101277.0;;;22.91;27.88
48530;BME280;34927;37.302;-121.982;2023-04-04T02:29:16;101287.0;;;22.95;27.91
48530;BME280;34927;37.302;-121.982;2023-04-04T02:30:22;101280.0;;;22.62;28.36
48530;BME280;34927;37.302;-121.982;2023-04-04T02:31:27;101282.0;;;22.72;28.27
48530;BME280;34927;37.302;-121.982;2023-04-04T02:32:32;101289.0;;;22.95;28.09
48530;BME280;34927;37.302;-121.982;2023-04-04T02:33:37;101290.0;;;23.21;27.78
48530;BME280;34927;37.302;-121.982;2023-04-04T02:34:42;101297.0;;;23.46;27.41
48530;BME280;34927;37.302;-121.982;2023-04-04T02:35:47;101288.0;;;23.58;27.20
48530;BME280;34927;37.302;-121.982;2023-04-04T02:36:51;101293.0;;;23.63;26.99
48530;BME280;34927;37.302;-121.982;2023-04-04T02:37:57;101289.0;;;23.55;27.07
48530;BME280;34927;37.302;-121.982;2023-04-04T02:39:01;101291.0;;;23.18;27.34
48530;BME280;34927;37.302;-121.982;2023-04-04T02:40:08;101294.0;;;22.95;27.68
48530;BME280;34927;37.302;-121.982;2023-04-04T02:41:12;101292.0;;;23.02;27.55
48530;BME280;34927;37.302;-121.982;2023-04-04T02:42:16;101295.0;;;23.00;27.56
48530;BME280;34927;37.302;-121.982;2023-04-04T02:43:21;101296.0;;;23.04;27.51
48530;BME280;34927;37.302;-121.982;2023-04-04T02:44:27;101295.0;;;23.05;27.48
48530;BME280;34927;37.302;-121.982;2023-04-04T02:45:32;101290.0;;;23.06;27.42
48530;BME280;34927;37.302;-121.982;2023-04-04T02:46:37;101294.0;;;22.90;27.64
48530;BME280;34927;37.302;-121.982;2023-04-04T02:47:42;101295.0;;;22.86;27.72
48530;BME280;34927;37.302;-121.982;2023-04-04T02:48:51;101295.0;;;22.89;27.69
48530;BME280;34927;37.302;-121.982;2023-04-04T02:49:56;101292.0;;;22.66;27.92
48530;BME280;34927;37.302;-121.982;2023-04-04T02:51:01;101296.0;;;22.53;28.16
48530;BME280;34927;37.302;-121.982;2023-04-04T02:52:07;101299.0;;;22.56;28.12
48530;BME280;34927;37.302;-121.982;2023-04-04T02:53:12;101300.0;;;22.51;28.16
48530;BME280;34927;37.302;-121.982;2023-04-04T02:54:16;101299.0;;;22.41;28.27
48530;BME280;34927;37.302;-121.982;2023-04-04T02:55:21;101299.0;;;22.34;28.34
48530;BME280;34927;37.302;-121.982;2023-04-04T02:56:27;101304.0;;;22.33;28.35
48530;BME280;34927;37.302;-121.982;2023-04-04T02:57:31;101305.0;;;22.26;28.43
48530;BME280;34927;37.302;-121.982;2023-04-04T02:58:36;101306.0;;;22.18;28.52
48530;BME280;34927;37.302;-121.982;2023-04-04T02:59:41;101308.0;;;22.29;28.37
48530;BME280;34927;37.302;-121.982;2023-04-04T03:00:53;101304.0;;;22.58;28.01
48530;BME280;34927;37.302;-121.982;2023-04-04T03:01:57;101311.0;;;22.84;27.69
48530;BME280;34927;37.302;-121.982;2023-04-04T03:03:02;101308.0;;;23.07;27.34
48530;BME280;34927;37.302;-121.982;2023-04-04T03:04:06;101314.0;;;23.31;26.98
48530;BME280;34927;37.302;-121.982;2023-04-04T03:05:12;101317.0;;;23.36;26.89
48530;BME280;34927;37.302;-121.982;2023-04-04T03:06:17;101317.0;;;23.43;26.78
48530;BME280;34927;37.302;-121.982;2023-04-04T03:07:22;101316.0;;;23.09;27.16
48530;BME280;34927;37.302;-121.982;2023-04-04T03:08:27;101320.0;;;22.89;27.37
48530;BME280;34927;37.302;-121.982;2023-04-04T03:09:31;101319.0;;;22.76;27.51
48530;BME280;34927;37.302;-121.982;2023-04-04T03:10:37;101322.0;;;22.77;27.55
48530;BME280;34927;37.302;-121.982;2023-04-04T03:11:42;101326.0;;;22.71;27.56
48530;BME280;34927;37.302;-121.982;2023-04-04T03:12:46;101324.0;;;22.61;27.69
48530;BME280;34927;37.302;-121.982;2023-04-04T03:13:51;101324.0;;;22.53;27.77
48530;BME280;34927;37.302;-121.982;2023-04-04T03:14:57;101324.0;;;22.51;27.77
48530;BME280;34927;37.302;-121.982;2023-04-04T03:16:03;101323.0;;;22.49;27.80
48530;BME280;34927;37.302;-121.982;2023-04-04T03:17:06;101323.0;;;22.45;27.89
48530;BME280;34927;37.302;-121.982;2023-04-04T03:18:11;101322.0;;;22.29;28.08
48530;BME280;34927;37.302;-121.982;2023-04-04T03:19:17;101323.0;;;22.22;28.16
48530;BME280;34927;37.302;-121.982;2023-04-04T03:20:22;101332.0;;;22.12;28.28
48530;BME280;34927;37.302;-121.982;2023-04-04T03:21:27;101331.0;;;22.08;28.34
48530;BME280;34927;37.302;-121.982;2023-04-04T03:22:32;101333.0;;;22.08;28.31
48530;BME280;34927;37.302;-121.982;2023-04-04T03:23:37;101334.0;;;22.04;28.36
48530;BME280;34927;37.302;-121.982;2023-04-04T03:24:42;101335.0;;;21.98;28.34
48530;BME280;34927;37.302;-121.982;2023-04-04T03:25:47;101333.0;;;22.14;28.24
48530;BME280;34927;37.302;-121.982;2023-04-04T03:26:51;101331.0;;;22.43;27.90
48530;BME280;34927;37.302;-121.982;2023-04-04T03:27:56;101332.0;;;22.66;27.93
48530;BME280;34927;37.302;-121.982;2023-04-04T03:29:02;101335.0;;;22.88;27.60
48530;BME280;34927;37.302;-121.982;2023-04-04T03:30:09;101334.0;;;23.15;27.34
48530;BME280;34927;37.302;-121.982;2023-04-04T03:31:12;101331.0;;;23.29;27.14
48530;BME280;34927;37.302;-121.982;2023-04-04T03:32:16;101333.0;;;23.37;27.13
48530;BME280;34927;37.302;-121.982;2023-04-04T03:33:22;101336.0;;;23.14;27.44
48530;BME280;34927;37.302;-121.982;2023-04-04T03:34:27;101334.0;;;22.95;27.56
48530;BME280;34927;37.302;-121.982;2023-04-04T03:35:32;101336.0;;;22.80;27.88
48530;BME280;34927;37.302;-121.982;2023-04-04T03:36:37;101334.0;;;22.77;27.99
48530;BME280;34927;37.302;-121.982;2023-04-04T03:37:48;101337.0;;;22.69;28.10
48530;BME280;34927;37.302;-121.982;2023-04-04T03:38:52;101339.0;;;22.71;28.12
48530;BME280;34927;37.302;-121.982;2023-04-04T03:39:57;101343.0;;;22.43;28.61
48530;BME280;34927;37.302;-121.982;2023-04-04T03:41:02;101339.0;;;22.40;28.74
48530;BME280;34927;37.302;-121.982;2023-04-04T03:42:06;101343.0;;;22.43;28.47
48530;BME280;34927;37.302;-121.982;2023-04-04T03:43:11;101349.0;;;22.36;28.59
48530;BME280;34927;37.302;-121.982;2023-04-04T03:44:16;101349.0;;;22.28;28.58
48530;BME280;34927;37.302;-121.982;2023-04-04T03:45:21;101350.0;;;22.30;28.54
48530;BME280;34927;37.302;-121.982;2023-04-04T03:46:27;101350.0;;;22.33;28.41
48530;BME280;34927;37.302;-121.982;2023-04-04T03:47:32;101357.0;;;22.19;28.60
48530;BME280;34927;37.302;-121.982;2023-04-04T03:48:36;101352.0;;;22.09;28.73
48530;BME280;34927;37.302;-121.982;2023-04-04T03:49:41;101353.0;;;22.01;28.85
48530;BME280;34927;37.302;-121.982;2023-04-04T03:50:46;101357.0;;;21.95;28.96
48530;BME280;34927;37.302;-121.982;2023-04-04T03:51:52;101356.0;;;21.93;29.09
48530;BME280;34927;37.302;-121.982;2023-04-04T03:52:56;101358.0;;;21.87;29.30
48530;BME280;34927;37.302;-121.982;2023-04-04T03:54:02;101361.0;;;21.86;29.38
48530;BME280;34927;37.302;-121.982;2023-04-04T03:55:08;101358.0;;;21.96;29.47
48530;BME280;34927;37.302;-121.982;2023-04-04T03:56:12;101362.0;;;22.17;29.42
48530;BME280;34927;37.302;-121.982;2023-04-04T03:57:16;101364.0;;;22.39;29.18
48530;BME280;34927;37.302;-121.982;2023-04-04T03:58:22;101364.0;;;22.67;28.84
48530;BME280;34927;37.302;-121.982;2023-04-04T03:59:27;101368.0;;;22.94;28.58
48530;BME280;34927;37.302;-121.982;2023-04-04T04:00:31;101365.0;;;23.10;28.36
48530;BME280;34927;37.302;-121.982;2023-04-04T04:01:36;101367.0;;;23.13;28.28
48530;BME280;34927;37.302;-121.982;2023-04-04T04:02:41;101366.0;;;23.10;28.16
48530;BME280;34927;37.302;-121.982;2023-04-04T04:03:46;101369.0;;;22.92;28.43
48530;BME280;34927;37.302;-121.982;2023-04-04T04:04:51;101370.0;;;22.77;28.63
48530;BME280;34927;37.302;-121.982;2023-04-04T04:05:57;101372.0;;;22.61;28.86
48530;BME280;34927;37.302;-121.982;2023-04-04T04:07:01;101368.0;;;22.47;29.02
48530;BME280;34927;37.302;-121.982;2023-04-04T04:08:07;101373.0;;;22.41;29.15
48530;BME280;34927;37.302;-121.982;2023-04-04T04:09:12;101377.0;;;22.28;29.26
48530;BME280;34927;37.302;-121.982;2023-04-04T04:10:17;101368.0;;;22.18;29.35
48530;BME280;34927;37.302;-121.982;2023-04-04T04:11:21;101373.0;;;22.11;29.57
48530;BME280;34927;37.302;-121.982;2023-04-04T04:12:27;101373.0;;;22.04;29.85
48530;BME280;34927;37.302;-121.982;2023-04-04T04:13:33;101370.0;;;22.09;29.94
48530;BME280;34927;37.302;-121.982;2023-04-04T04:14:37;101370.0;;;22.03;30.10
48530;BME280;34927;37.302;-121.982;2023-04-04T04:15:42;101374.0;;;21.90;30.23
48530;BME280;34927;37.302;-121.982;2023-04-04T04:16:47;101377.0;;;21.91;30.26
48530;BME280;34927;37.302;-121.982;2023-04-04T04:17:52;101380.0;;;21.89;29.95
48530;BME280;34927;37.302;-121.982;2023-04-04T04:18:56;101380.0;;;22.00;30.19
48530;BME280;34927;37.302;-121.982;2023-04-04T04:20:01;101384.0;;;22.18;29.94
48530;BME280;34927;37.302;-121.982;2023-04-04T04:21:07;101387.0;;;22.45;29.65
48530;BME280;34927;37.302;-121.982;2023-04-04T04:22:12;101383.0;;;22.70;29.32
48530;BME280;34927;37.302;-121.982;2023-04-04T04:23:16;101389.0;;;22.96;28.95
48530;BME280;34927;37.302;-121.982;2023-04-04T04:24:21;101391.0;;;23.25;28.55
48530;BME280;34927;37.302;-121.982;2023-04-04T04:25:27;101389.0;;;23.47;28.17
48530;BME280;34927;37.302;-121.982;2023-04-04T04:26:32;101392.0;;;23.45;28.03
48530;BME280;34927;37.302;-121.982;2023-04-04T04:27:38;101392.0;;;23.41;28.09
48530;BME280;34927;37.302;-121.982;2023-04-04T04:28:42;101394.0;;;23.08;28.40
48530;BME280;34927;37.302;-121.982;2023-04-04T04:29:47;101393.0;;;22.83;28.64
48530;BME280;34927;37.302;-121.982;2023-04-04T04:30:51;101392.0;;;22.66;28.87
48530;BME280;34927;37.302;-121.982;2023-04-04T04:31:57;101396.0;;;22.74;28.86
48530;BME280;34927;37.302;-121.982;2023-04-04T04:33:02;101400.0;;;22.47;29.09
48530;BME280;34927;37.302;-121.982;2023-04-04T04:34:08;101397.0;;;22.53;28.99
48530;BME280;34927;37.302;-121.982;2023-04-04T04:35:13;101406.0;;;22.50;28.98
48530;BME280;34927;37.302;-121.982;2023-04-04T04:36:17;101400.0;;;22.61;28.81
48530;BME280;34927;37.302;-121.982;2023-04-04T04:37:22;101406.0;;;22.55;28.90
48530;BME280;34927;37.302;-121.982;2023-04-04T04:38:26;101404.0;;;22.46;28.95
48530;BME280;34927;37.302;-121.982;2023-04-04T04:39:31;101403.0;;;22.47;28.98
48530;BME280;34927;37.302;-121.982;2023-04-04T04:40:37;101407.0;;;22.41;29.05
48530;BME280;34927;37.302;-121.982;2023-04-04T04:41:47;101407.0;;;22.52;28.98
48530;BME280;34927;37.302;-121.982;2023-04-04T04:42:52;101409.0;;;22.65;28.85
48530;BME280;34927;37.302;-121.982;2023-04-04T04:43:57;101409.0;;;22.96;28.55
48530;BME280;34927;37.302;-121.982;2023-04-04T04:45:03;101407.0;;;23.16;28.19
48530;BME280;34927;37.302;-121.982;2023-04-04T04:46:06;101406.0;;;23.43;27.89
48530;BME280;34927;37.302;-121.982;2023-04-04T04:47:12;101410.0;;;23.70;27.51
48530;BME280;34927;37.302;-121.982;2023-04-04T04:48:17;101406.0;;;23.77;27.32
48530;BME280;34927;37.302;-121.982;2023-04-04T04:49:22;101408.0;;;23.76;27.34
48530;BME280;34927;37.302;-121.982;2023-04-04T04:50:26;101413.0;;;23.68;27.34
48530;BME280;34927;37.302;-121.982;2023-04-04T04:51:33;101412.0;;;23.43;27.61
48530;BME280;34927;37.302;-121.982;2023-04-04T04:52:37;101414.0;;;23.21;27.95
48530;BME280;34927;37.302;-121.982;2023-04-04T04:53:42;101414.0;;;23.05;28.16
48530;BME280;34927;37.302;-121.982;2023-04-04T04:54:46;101415.0;;;22.85;28.36
48530;BME280;34927;37.302;-121.982;2023-04-04T04:55:51;101415.0;;;22.85;28.36
48530;BME280;34927;37.302;-121.982;2023-04-04T04:56:57;101417.0;;;22.80;28.40
48530;BME280;34927;37.302;-121.982;2023-04-04T04:58:02;101419.0;;;22.55;28.68
48530;BME280;34927;37.302;-121.982;2023-04-04T04:59:07;101418.0;;;22.63;28.50
48530;BME280;34927;37.302;-121.982;2023-04-04T05:00:12;101419.0;;;22.66;28.45
48530;BME280;34927;37.302;-121.982;2023-04-04T05:01:16;101416.0;;;22.74;28.31
48530;BME280;34927;37.302;-121.982;2023-04-04T05:02:22;101421.0;;;22.65;28.44
48530;BME280;34927;37.302;-121.982;2023-04-04T05:03:26;101423.0;;;22.73;28.44
48530;BME280;34927;37.302;-121.982;2023-04-04T05:04:32;101423.0;;;22.82;28.35
48530;BME280;34927;37.302;-121.982;2023-04-04T05:05:37;101424.0;;;23.10;28.01
48530;BME280;34927;37.302;-121.982;2023-04-04T05:06:42;101423.0;;;23.39;27.69
48530;BME280;34927;37.302;-121.982;2023-04-04T05:07:46;101424.0;;;23.57;27.37
48530;BME280;34927;37.302;-121.982;2023-04-04T05:08:51;101421.0;;;23.87;26.99
48530;BME280;34927;37.302;-121.982;2023-04-04T05:09:57;101426.0;;;23.94;26.86
48530;BME280;34927;37.302;-121.982;2023-04-04T05:11:01;101426.0;;;23.88;26.89
48530;BME280;34927;37.302;-121.982;2023-04-04T05:12:07;101425.0;;;23.80;27.12
48530;BME280;34927;37.302;-121.982;2023-04-04T05:13:11;101427.0;;;23.44;27.44
48530;BME280;34927;37.302;-121.982;2023-04-04T05:14:16;101426.0;;;23.38;27.52
48530;BME280;34927;37.302;-121.982;2023-04-04T05:15:23;101426.0;;;23.32;27.58
48530;BME280;34927;37.302;-121.982;2023-04-04T05:16:26;101430.0;;;23.08;27.87
48530;BME280;34927;37.302;-121.982;2023-04-04T05:17:34;101431.0;;;22.95;28.04
48530;BME280;34927;37.302;-121.982;2023-04-04T05:18:36;101432.0;;;23.03;27.89
48530;BME280;34927;37.302;-121.982;2023-04-04T05:19:41;101435.0;;;22.96;27.93
48530;BME280;34927;37.302;-121.982;2023-04-04T05:20:50;101437.0;;;22.84;28.13
48530;BME280;34927;37.302;-121.982;2023-04-04T05:21:56;101438.0;;;22.80;28.07
48530;BME280;34927;37.302;-121.982;2023-04-04T05:23:01;101436.0;;;22.66;28.02
48530;BME280;34927;37.302;-121.982;2023-04-04T05:24:07;101439.0;;;22.64;28.49
48530;BME280;34927;37.302;-121.982;2023-04-04T05:25:12;101437.0;;;22.76;28.55
48530;BME280;34927;37.302;-121.982;2023-04-04T05:26:17;101437.0;;;22.92;28.51
48530;BME280;34927;37.302;-121.982;2023-04-04T05:27:21;101439.0;;;23.16;28.21
48530;BME280;34927;37.302;-121.982;2023-04-04T05:28:27;101439.0;;;23.41;27.93
48530;BME280;34927;37.302;-121.982;2023-04-04T05:29:32;101441.0;;;23.44;27.81
48530;BME280;34927;37.302;-121.982;2023-04-04T05:30:37;101438.0;;;23.50;27.59
48530;BME280;34927;37.302;-121.982;2023-04-04T05:31:42;101437.0;;;23.34;27.67
48530;BME280;34927;37.302;-121.982;2023-04-04T05:32:47;101435.0;;;23.05;27.93